createdAt,value
2018-11-10T00:01:14.155Z,79.33
2018-11-10T00:03:42.337Z,76.73
2018-11-10T00:06:10.570Z,93.83
2018-11-10T00:08:38.758Z,92.43
2018-11-10T00:11:07.018Z,103.97
2018-11-10T00:13:35.210Z,99.40
2018-11-10T00:16:03.445Z,76.17
2018-11-10T00:18:31.623Z,81.40
2018-11-10T00:21:00.066Z,79.83
2018-11-10T00:23:28.298Z,92.80
2018-11-10T00:25:56.522Z,93.27
2018-11-10T00:28:24.734Z,78.00
2018-11-10T00:30:52.992Z,82.67
2018-11-10T00:33:21.183Z,78.50
2018-11-10T00:35:49.740Z,88.13
2018-11-10T00:38:17.967Z,84.67
2018-11-10T00:40:46.277Z,65.93
2018-11-10T00:43:14.425Z,66.67
2018-11-10T00:45:42.645Z,61.43
2018-11-10T00:48:10.886Z,66.67
2018-11-10T00:50:39.129Z,73.13
2018-11-10T00:53:07.314Z,80.00
2018-11-10T00:55:35.534Z,108.97
2018-11-10T00:58:03.794Z,101.43
2018-11-10T01:00:31.985Z,92.20
2018-11-10T01:03:00.330Z,135.77
2018-11-10T01:05:28.579Z,123.13
2018-11-10T01:07:56.886Z,115.43
2018-11-10T01:10:25.071Z,117.93
2018-11-10T01:12:53.263Z,113.40
2018-11-10T01:15:21.466Z,104.27
2018-11-10T01:17:49.774Z,115.63
2018-11-10T01:20:17.966Z,117.07
2018-11-10T01:22:46.494Z,103.50
2018-11-10T01:25:14.678Z,113.40
2018-11-10T01:27:44.463Z,156.60
2018-11-10T01:30:15.257Z,138.47
2018-11-10T01:32:44.478Z,151.33
2018-11-10T01:35:12.965Z,135.23
2018-11-10T01:37:41.171Z,126.97
2018-11-10T01:40:11.890Z,156.00
2018-11-10T01:42:40.425Z,169.73
2018-11-10T01:45:10.910Z,154.33
2018-11-10T01:47:39.106Z,160.23
2018-11-10T01:50:08.938Z,175.77
2018-11-10T01:52:38.606Z,164.30
2018-11-10T01:55:07.283Z,163.50
2018-11-10T01:57:35.826Z,150.00
2018-11-10T02:00:05.166Z,158.83
2018-11-10T02:02:33.389Z,145.50
2018-11-10T02:05:01.582Z,125.17
2018-11-10T02:07:30.392Z,125.57
2018-11-10T02:09:58.582Z,124.07
2018-11-10T02:12:26.828Z,126.30
2018-11-10T02:14:55.031Z,119.73
2018-11-10T02:17:23.189Z,105.43
2018-11-10T02:19:52.094Z,95.77
2018-11-10T02:22:20.333Z,111.57
2018-11-10T02:24:49.018Z,102.40
2018-11-10T02:27:21.114Z,98.33
2018-11-10T02:29:49.783Z,96.23
2018-11-10T02:32:18.382Z,100.80
2018-11-10T02:34:46.572Z,91.30
2018-11-10T02:37:14.830Z,92.73
2018-11-10T02:39:43.526Z,77.80
2018-11-10T02:42:11.723Z,87.07
2018-11-10T02:44:41.607Z,92.37
2018-11-10T02:47:09.797Z,76.87
2018-11-10T02:49:37.967Z,72.40
2018-11-10T02:52:06.134Z,85.77
2018-11-10T02:54:34.489Z,77.77
2018-11-10T02:57:03.358Z,80.40
2018-11-10T02:59:31.589Z,79.13
2018-11-10T03:01:59.838Z,66.93
2018-11-10T03:04:28.039Z,77.00
2018-11-10T03:06:56.210Z,63.97
2018-11-10T03:09:24.714Z,73.53
2018-11-10T03:11:52.899Z,63.93
2018-11-10T03:14:21.100Z,68.20
2018-11-10T03:16:49.320Z,57.77
2018-11-10T03:19:17.923Z,57.77
2018-11-10T03:21:46.155Z,57.97
2018-11-10T03:24:15.843Z,63.17
2018-11-10T03:26:44.022Z,60.53
2018-11-10T03:29:12.514Z,59.47
2018-11-10T03:31:40.890Z,63.30
2018-11-10T03:34:09.315Z,57.87
2018-11-10T03:36:37.500Z,56.27
2018-11-10T03:39:08.371Z,49.53
2018-11-10T03:41:36.560Z,47.70
2018-11-10T03:44:04.838Z,47.97
2018-11-10T03:46:34.934Z,52.20
2018-11-10T03:49:03.607Z,48.60
2018-11-10T03:51:31.806Z,52.73
2018-11-10T03:54:00.025Z,51.00
2018-11-10T03:56:28.227Z,51.77
2018-11-10T03:58:56.426Z,46.60
2018-11-10T04:01:25.145Z,51.30
2018-11-10T04:03:53.484Z,45.37
2018-11-10T04:06:21.761Z,42.67
2018-11-10T04:08:50.032Z,47.27
2018-11-10T04:11:18.937Z,49.13
2018-11-10T04:13:47.476Z,45.67
2018-11-10T04:16:15.708Z,43.30
2018-11-10T04:18:43.906Z,45.73
2018-11-10T04:21:12.198Z,40.63
2018-11-10T04:23:40.497Z,45.50
2018-11-10T04:26:08.642Z,39.47
2018-11-10T04:28:36.825Z,37.53
2018-11-10T04:31:05.290Z,37.33
2018-11-10T04:33:33.465Z,37.10
2018-11-10T04:36:05.563Z,44.47
2018-11-10T04:38:33.786Z,42.87
2018-11-10T04:41:02.079Z,43.13
2018-11-10T04:43:30.278Z,44.27
2018-11-10T04:45:58.485Z,39.60
2018-11-10T04:48:26.667Z,41.70
2018-11-10T04:50:54.905Z,44.20
2018-11-10T04:53:23.101Z,42.70
2018-11-10T04:55:51.282Z,42.70
2018-11-10T04:58:19.481Z,44.83
2018-11-10T05:00:47.637Z,45.47
2018-11-10T05:03:16.026Z,50.20
2018-11-10T05:05:44.242Z,51.73
2018-11-10T05:08:14.259Z,45.07
2018-11-10T05:10:42.414Z,44.33
2018-11-10T05:13:10.632Z,45.23
2018-11-10T05:15:38.824Z,44.87
2018-11-10T05:18:07.034Z,50.40
2018-11-10T05:20:35.211Z,44.57
2018-11-10T05:23:03.436Z,49.97
2018-11-10T05:25:32.995Z,52.73
2018-11-10T05:28:01.274Z,49.13
2018-11-10T05:30:30.306Z,53.63
2018-11-10T05:32:58.494Z,48.10
2018-11-10T05:35:30.678Z,48.70
2018-11-10T05:37:59.542Z,52.77
2018-11-10T05:40:28.792Z,49.37
2018-11-10T05:42:57.119Z,48.93
2018-11-10T05:45:25.300Z,45.53
2018-11-10T05:47:53.521Z,55.07
2018-11-10T05:50:22.026Z,53.33
2018-11-10T05:52:50.211Z,54.90
2018-11-10T05:55:18.427Z,48.97
2018-11-10T05:57:46.767Z,58.17
2018-11-10T06:00:14.974Z,54.53
2018-11-10T06:02:43.366Z,58.13
2018-11-10T06:05:12.266Z,60.27
2018-11-10T06:07:40.595Z,60.90
2018-11-10T06:10:10.140Z,63.27
2018-11-10T06:12:38.199Z,62.43
2018-11-10T06:15:07.415Z,56.87
2018-11-10T06:17:35.599Z,59.87
2018-11-10T06:20:04.745Z,63.47
2018-11-10T06:22:32.962Z,68.63
2018-11-10T06:25:01.175Z,56.73
2018-11-10T06:27:29.598Z,58.70
2018-11-10T06:29:57.775Z,62.80
2018-11-10T06:32:25.992Z,62.00
2018-11-10T06:34:54.904Z,61.50
2018-11-10T06:37:23.066Z,61.23
2018-11-10T06:39:51.250Z,59.67
2018-11-10T06:42:19.414Z,64.83
2018-11-10T06:44:47.642Z,63.97
2018-11-10T06:47:15.902Z,71.83
2018-11-10T06:49:45.726Z,66.60
2018-11-10T06:52:14.015Z,69.00
2018-11-10T06:54:42.914Z,65.47
2018-11-10T06:57:11.486Z,67.67
2018-11-10T06:59:40.002Z,77.63
2018-11-10T07:02:08.385Z,75.87
2018-11-10T07:04:36.586Z,69.37
2018-11-10T07:07:05.114Z,71.70
2018-11-10T07:09:33.382Z,77.50
2018-11-10T07:12:01.531Z,77.57
2018-11-10T07:14:29.710Z,74.97
2018-11-10T07:16:57.902Z,74.43
2018-11-10T07:19:26.111Z,83.70
2018-11-10T07:21:54.291Z,78.23
2018-11-10T07:24:22.503Z,88.80
2018-11-10T07:26:50.678Z,85.80
2018-11-10T07:29:18.865Z,76.03
2018-11-10T07:31:47.098Z,87.73
2018-11-10T07:34:15.753Z,84.80
2018-11-10T07:36:44.165Z,86.10
2018-11-10T07:39:12.661Z,78.10
2018-11-10T07:41:42.281Z,81.27
2018-11-10T07:44:10.525Z,82.07
2018-11-10T07:46:38.728Z,82.27
2018-11-10T07:49:06.965Z,78.43
2018-11-10T07:51:35.182Z,74.83
2018-11-10T07:54:03.370Z,74.90
2018-11-10T07:56:32.470Z,72.47
2018-11-10T07:59:00.835Z,67.33
2018-11-10T08:01:29.040Z,67.37
2018-11-10T08:03:57.216Z,68.77
2018-11-10T08:06:25.352Z,64.53
2018-11-10T08:08:53.540Z,62.97
2018-11-10T08:11:22.722Z,64.77
2018-11-10T08:13:50.950Z,59.90
2018-11-10T08:16:19.118Z,63.40
2018-11-10T08:18:47.322Z,59.87
2018-11-10T08:21:16.762Z,63.77
2018-11-10T08:23:44.938Z,61.17
2018-11-10T08:26:13.174Z,59.03
2018-11-10T08:28:41.402Z,65.40
2018-11-10T08:31:09.629Z,68.53
2018-11-10T08:33:37.787Z,64.37
2018-11-10T08:36:06.042Z,65.23
2018-11-10T08:38:34.201Z,60.80
2018-11-10T08:41:02.465Z,61.50
2018-11-10T08:43:30.724Z,63.77
2018-11-10T08:46:00.561Z,63.40
2018-11-10T08:48:29.132Z,64.97
2018-11-10T08:50:57.432Z,67.80
2018-11-10T08:53:25.706Z,62.17
2018-11-10T08:55:54.447Z,65.33
2018-11-10T08:58:22.717Z,69.40
2018-11-10T09:00:50.891Z,63.43
2018-11-10T09:03:19.086Z,57.17
2018-11-10T09:05:47.741Z,61.63
2018-11-10T09:08:15.966Z,62.30
2018-11-10T09:10:44.169Z,59.33
2018-11-10T09:13:12.394Z,62.20
2018-11-10T09:15:40.577Z,59.57
2018-11-10T09:18:08.950Z,54.67
2018-11-10T09:20:37.674Z,56.63
2018-11-10T09:23:08.207Z,65.57
2018-11-10T09:25:36.699Z,57.53
2018-11-10T09:28:05.139Z,51.07
2018-11-10T09:30:33.321Z,56.33
2018-11-10T09:33:01.822Z,54.27
2018-11-10T09:35:30.041Z,48.83
2018-11-10T09:37:58.229Z,54.10
2018-11-10T09:40:26.385Z,47.70
2018-11-10T09:42:54.599Z,54.97
2018-11-10T09:45:22.832Z,49.47
2018-11-10T09:47:50.974Z,50.57
2018-11-10T09:50:21.719Z,46.60
2018-11-10T09:52:50.221Z,47.47
2018-11-10T09:55:18.824Z,46.57
2018-11-10T09:57:47.675Z,43.60
2018-11-10T10:00:20.374Z,44.23
2018-11-10T10:02:49.789Z,39.60
2018-11-10T10:05:17.454Z,40.30
2018-11-10T10:07:45.914Z,42.43
2018-11-10T10:10:15.318Z,38.13
2018-11-10T10:12:43.875Z,40.03
2018-11-10T10:15:14.698Z,35.13
2018-11-10T10:17:43.711Z,37.27
2018-11-10T10:20:14.507Z,35.53
2018-11-10T10:22:44.326Z,37.63
2018-11-10T10:25:13.526Z,37.27
2018-11-10T10:27:41.984Z,38.77
2018-11-10T10:30:26.390Z,39.20
2018-11-10T10:32:54.619Z,42.30
2018-11-10T10:35:23.056Z,39.63
2018-11-10T10:37:52.308Z,39.47
2018-11-10T10:40:20.821Z,39.57
2018-11-10T10:42:49.251Z,36.63
2018-11-10T10:45:19.019Z,41.90
2018-11-10T10:47:47.192Z,39.90
2018-11-10T10:50:16.998Z,39.93
2018-11-10T10:52:45.509Z,40.90
2018-11-10T10:55:14.780Z,38.93
2018-11-10T10:57:44.742Z,41.40
2018-11-10T11:00:18.969Z,41.97
2018-11-10T11:02:52.756Z,38.50
2018-11-10T11:06:29.879Z,38.57
2018-11-10T11:08:58.105Z,40.23
2018-11-10T11:11:26.230Z,40.00
2018-11-10T11:13:54.462Z,40.70
2018-11-10T11:16:22.680Z,43.37
2018-11-10T11:18:50.882Z,43.47
2018-11-10T11:21:19.125Z,42.23
2018-11-10T11:23:47.286Z,38.97
2018-11-10T11:26:15.490Z,38.20
2018-11-10T11:28:43.722Z,36.60
2018-11-10T11:31:11.949Z,40.90
2018-11-10T11:33:40.143Z,44.37
2018-11-10T11:36:08.342Z,44.43
2018-11-10T11:38:36.930Z,39.83
2018-11-10T11:41:05.551Z,39.87
2018-11-10T11:43:33.703Z,39.40
2018-11-10T11:46:01.914Z,38.93
2018-11-10T11:48:30.938Z,38.00
2018-11-10T11:50:59.387Z,37.50
2018-11-10T11:53:27.630Z,37.30
2018-11-10T11:55:55.830Z,35.73
2018-11-10T11:58:24.162Z,39.37
2018-11-10T12:00:52.297Z,32.33
2018-11-10T12:03:20.500Z,34.30
2018-11-10T12:05:48.679Z,32.67
2018-11-10T12:08:16.829Z,30.90
2018-11-10T12:10:44.985Z,29.73
2018-11-10T12:13:13.790Z,33.00
2018-11-10T12:15:42.555Z,32.87
2018-11-10T12:18:10.718Z,36.00
2018-11-10T12:20:39.075Z,38.70
2018-11-10T12:23:07.214Z,35.50
2018-11-10T12:25:35.377Z,35.60
2018-11-10T12:28:03.602Z,36.17
2018-11-10T12:30:31.801Z,38.37
2018-11-10T12:32:59.975Z,34.23
2018-11-10T12:35:28.293Z,35.33
2018-11-10T12:37:56.502Z,36.87
2018-11-10T12:40:24.718Z,35.37
2018-11-10T12:42:53.870Z,33.97
2018-11-10T12:45:22.130Z,36.80
2018-11-10T12:47:51.252Z,35.00
2018-11-10T12:50:25.976Z,33.10
2018-11-10T12:52:54.192Z,34.63
2018-11-10T12:55:23.237Z,34.90
2018-11-10T12:57:51.805Z,33.67
2018-11-10T13:00:20.323Z,32.90
2018-11-10T13:02:48.478Z,33.77
2018-11-10T13:05:16.835Z,30.00
2018-11-10T13:07:46.099Z,31.67
2018-11-10T13:10:14.286Z,33.20
2018-11-10T13:12:43.011Z,29.87
2018-11-10T13:15:11.439Z,28.57
2018-11-10T13:17:39.973Z,26.80
2018-11-10T13:20:10.123Z,28.57
2018-11-10T13:22:39.254Z,27.57
2018-11-10T13:25:08.297Z,28.30
2018-11-10T13:27:36.566Z,29.37
2018-11-10T13:30:05.006Z,26.00
2018-11-10T13:32:33.179Z,26.00
2018-11-10T13:35:01.639Z,26.87
2018-11-10T13:37:30.235Z,26.03
2018-11-10T13:40:01.511Z,25.37
2018-11-10T13:42:29.810Z,21.93
2018-11-10T13:44:57.962Z,22.63
2018-11-10T13:47:26.223Z,20.37
2018-11-10T13:49:54.419Z,22.20
2018-11-10T13:52:22.882Z,19.63
2018-11-10T13:54:50.827Z,21.80
2018-11-10T13:57:20.108Z,18.63
2018-11-10T13:59:48.282Z,15.80
2018-11-10T14:02:17.310Z,19.37
2018-11-10T14:04:46.025Z,17.10
2018-11-10T14:07:14.195Z,15.90
2018-11-10T14:09:42.426Z,16.33
2018-11-10T14:12:10.656Z,18.40
2018-11-10T14:14:39.246Z,15.80
2018-11-10T14:17:07.451Z,18.37
2018-11-10T14:19:35.894Z,17.30
2018-11-10T14:22:04.218Z,16.30
2018-11-10T14:24:32.454Z,16.63
2018-11-10T14:27:00.915Z,15.50
2018-11-10T14:29:29.837Z,15.03
2018-11-10T14:31:58.045Z,15.67
2018-11-10T14:34:26.266Z,15.77
2018-11-10T14:36:54.483Z,17.77
2018-11-10T14:39:22.700Z,15.80
2018-11-10T14:41:51.606Z,14.03
2018-11-10T14:44:20.565Z,17.03
2018-11-10T14:46:48.742Z,17.73
2018-11-10T14:49:16.955Z,15.70
2018-11-10T14:51:45.130Z,18.97
2018-11-10T14:54:13.326Z,16.93
2018-11-10T14:56:41.690Z,14.57
2018-11-10T14:59:09.898Z,17.93
2018-11-10T15:01:38.150Z,15.70
2018-11-10T15:04:06.856Z,21.67
2018-11-10T15:06:35.053Z,16.73
2018-11-10T15:09:03.490Z,17.00
2018-11-10T15:11:32.175Z,18.30
2018-11-10T15:14:00.774Z,16.13
2018-11-10T15:16:29.448Z,17.47
2018-11-10T15:18:57.656Z,16.03
2018-11-10T15:21:25.830Z,17.73
2018-11-10T15:23:54.042Z,16.00
2018-11-10T15:26:23.029Z,19.93
2018-11-10T15:28:51.231Z,13.47
2018-11-10T15:31:19.466Z,16.50
2018-11-10T15:33:47.667Z,16.10
2018-11-10T15:36:16.855Z,17.10
2018-11-10T15:38:45.792Z,15.87
2018-11-10T15:41:14.102Z,16.07
2018-11-10T15:43:42.961Z,16.40
2018-11-10T15:46:11.158Z,18.47
2018-11-10T15:48:39.330Z,18.67
2018-11-10T15:51:07.849Z,15.27
2018-11-10T15:53:36.022Z,16.03
2018-11-10T15:56:04.314Z,17.93
2018-11-10T15:58:32.794Z,13.70
2018-11-10T16:01:06.912Z,15.37
2018-11-10T16:03:35.141Z,15.27
2018-11-10T16:06:03.363Z,16.67
2018-11-10T16:08:31.541Z,16.07
2018-11-10T16:10:59.938Z,15.13
2018-11-10T16:13:28.182Z,13.57
2018-11-10T16:15:57.372Z,14.90
2018-11-10T16:18:27.514Z,15.47
2018-11-10T16:20:55.987Z,10.33
2018-11-10T16:23:24.105Z,10.73
2018-11-10T16:25:53.226Z,9.53
2018-11-10T16:28:21.438Z,12.13
2018-11-10T16:30:49.622Z,10.37
2018-11-10T16:33:17.810Z,8.87
2018-11-10T16:35:46.046Z,10.37
2018-11-10T16:38:14.266Z,9.87
2018-11-10T16:40:42.457Z,7.67
2018-11-10T16:43:10.772Z,8.93
2018-11-10T16:45:38.943Z,7.33
2018-11-10T16:48:09.847Z,8.77
2018-11-10T16:50:46.198Z,7.80
2018-11-10T16:53:14.451Z,7.00
2018-11-10T16:55:42.633Z,6.50
2018-11-10T16:58:10.778Z,6.23
2018-11-10T17:00:39.031Z,8.50
2018-11-10T17:03:07.242Z,6.00
2018-11-10T17:05:36.166Z,6.00
2018-11-10T17:08:05.011Z,5.53
2018-11-10T17:10:33.200Z,8.53
2018-11-10T17:13:02.276Z,7.07
2018-11-10T17:15:30.495Z,5.73
2018-11-10T17:17:59.674Z,9.53
2018-11-10T17:20:27.848Z,6.00
2018-11-10T17:22:56.084Z,7.33
2018-11-10T17:25:25.652Z,6.03
2018-11-10T17:27:53.927Z,6.93
2018-11-10T17:30:22.177Z,5.70
2018-11-10T17:32:50.265Z,7.23
2018-11-10T17:35:19.183Z,5.50
2018-11-10T17:37:47.383Z,6.83
2018-11-10T17:40:17.469Z,5.87
2018-11-10T17:42:46.020Z,6.90
2018-11-10T17:45:17.109Z,5.30
2018-11-10T17:47:45.392Z,4.37
2018-11-10T17:50:14.700Z,4.70
2018-11-10T17:52:43.890Z,4.60
2018-11-10T17:55:13.257Z,4.80
2018-11-10T17:57:43.811Z,4.17
2018-11-10T18:00:12.778Z,4.77
2018-11-10T18:02:40.961Z,5.00
2018-11-10T18:05:11.075Z,5.97
2018-11-10T18:07:39.337Z,4.13
2018-11-10T18:10:08.991Z,4.50
2018-11-10T18:12:37.147Z,4.83
2018-11-10T18:15:06.450Z,3.43
2018-11-10T18:17:34.643Z,4.73
2018-11-10T18:20:02.802Z,7.37
2018-11-10T18:22:30.982Z,3.67
2018-11-10T18:24:59.594Z,3.67
2018-11-10T18:27:27.786Z,5.30
2018-11-10T18:29:55.937Z,3.80
2018-11-10T18:32:24.174Z,3.60
2018-11-10T18:34:52.322Z,4.60
2018-11-10T18:37:20.506Z,4.27
2018-11-10T18:39:48.752Z,4.20
2018-11-10T18:42:16.946Z,4.50
2018-11-10T18:44:45.139Z,5.87
2018-11-10T18:47:13.688Z,4.97
2018-11-10T18:49:41.914Z,4.77
2018-11-10T18:52:10.476Z,4.33
2018-11-10T18:54:38.710Z,4.27
2018-11-10T18:57:06.962Z,4.20
2018-11-10T18:59:35.098Z,4.40
2018-11-10T19:02:03.938Z,5.03
2018-11-10T19:04:32.200Z,4.53
2018-11-10T19:07:00.379Z,5.30
2018-11-10T19:09:28.554Z,5.53
2018-11-10T19:11:56.754Z,4.43
2018-11-10T19:14:24.971Z,4.33
2018-11-10T19:16:53.172Z,4.70
2018-11-10T19:19:21.367Z,6.20
2018-11-10T19:21:51.239Z,5.30
2018-11-10T19:24:19.426Z,4.80
2018-11-10T19:26:47.716Z,9.73
2018-11-10T19:29:16.031Z,6.40
2018-11-10T19:31:46.238Z,5.97
2018-11-10T19:34:14.782Z,7.17
2018-11-10T19:36:43.070Z,9.53
2018-11-10T19:39:12.821Z,8.40
2018-11-10T19:41:41.658Z,9.63
2018-11-10T19:44:10.372Z,13.50
2018-11-10T19:46:39.603Z,12.03
2018-11-10T19:49:07.934Z,12.13
2018-11-10T19:51:36.240Z,11.43
2018-11-10T19:54:11.175Z,12.80
2018-11-10T19:56:39.800Z,13.83
2018-11-10T19:59:08.401Z,15.93
2018-11-10T20:01:36.602Z,16.53
2018-11-10T20:04:04.858Z,14.33
2018-11-10T20:06:33.092Z,14.43
2018-11-10T20:09:01.425Z,11.43
2018-11-10T20:11:29.596Z,12.57
2018-11-10T20:13:57.807Z,18.80
2018-11-10T20:16:26.026Z,13.97
2018-11-10T20:18:54.253Z,13.53
2018-11-10T20:21:22.430Z,14.63
2018-11-10T20:23:52.062Z,16.60
2018-11-10T20:26:21.127Z,15.33
2018-11-10T20:28:49.259Z,13.47
2018-11-10T20:31:20.163Z,14.80
2018-11-10T20:33:48.347Z,14.57
2018-11-10T20:36:16.542Z,14.37
2018-11-10T20:38:44.876Z,14.77
2018-11-10T20:41:13.026Z,16.13
2018-11-10T20:43:41.814Z,17.47
2018-11-10T20:46:10.563Z,15.67
2018-11-10T20:48:39.214Z,16.70
2018-11-10T20:51:07.444Z,15.47
2018-11-10T20:53:36.434Z,21.17
2018-11-10T20:56:05.388Z,15.77
2018-11-10T20:58:33.535Z,16.30
2018-11-10T21:01:01.831Z,13.60
2018-11-10T21:03:30.038Z,18.10
2018-11-10T21:05:58.316Z,17.23
2018-11-10T21:08:26.427Z,16.00
2018-11-10T21:10:54.990Z,16.20
2018-11-10T21:13:23.767Z,17.40
2018-11-10T21:15:53.389Z,16.43
2018-11-10T21:18:21.948Z,13.97
2018-11-10T21:20:50.556Z,12.37
2018-11-10T21:23:18.802Z,11.67
2018-11-10T21:25:46.991Z,10.13
2018-11-10T21:28:15.723Z,7.23
2018-11-10T21:30:44.030Z,7.00
2018-11-10T21:33:12.230Z,6.47
2018-11-10T21:35:42.571Z,6.70
2018-11-10T21:38:10.642Z,7.37
2018-11-10T21:40:38.842Z,5.40
2018-11-10T21:43:07.600Z,5.93
2018-11-10T21:45:35.943Z,7.27
2018-11-10T21:48:04.171Z,5.33
2018-11-10T21:50:32.530Z,6.40
2018-11-10T21:53:01.120Z,4.47
2018-11-10T21:55:29.279Z,5.13
2018-11-10T21:57:59.453Z,5.83
2018-11-10T22:00:27.686Z,7.00
2018-11-10T22:02:55.822Z,8.13
2018-11-10T22:05:23.998Z,4.63
2018-11-10T22:07:52.182Z,5.00
2018-11-10T22:10:20.639Z,5.63
2018-11-10T22:12:48.899Z,6.40
2018-11-10T22:15:21.386Z,5.70
2018-11-10T22:17:49.816Z,7.03
2018-11-10T22:20:19.450Z,6.57
2018-11-10T22:22:47.671Z,7.03
2018-11-10T22:25:16.173Z,5.97
2018-11-10T22:27:45.544Z,7.47
2018-11-10T22:30:14.910Z,7.03
2018-11-10T22:32:43.589Z,7.73
2018-11-10T22:35:11.916Z,7.13
2018-11-10T22:37:40.129Z,6.50
2018-11-10T22:40:10.095Z,9.90
2018-11-10T22:42:38.953Z,7.10
2018-11-10T22:45:09.616Z,9.17
2018-11-10T22:47:38.313Z,8.00
2018-11-10T22:50:08.638Z,9.43
2018-11-10T22:52:36.949Z,10.43
2018-11-10T22:55:05.450Z,9.30
2018-11-10T22:57:35.723Z,12.03
2018-11-10T23:00:04.859Z,14.33
2018-11-10T23:02:33.094Z,11.07
2018-11-10T23:05:01.506Z,16.10
2018-11-10T23:07:29.828Z,15.63
2018-11-10T23:09:58.071Z,16.67
2018-11-10T23:12:26.246Z,18.27
2018-11-10T23:14:55.162Z,21.53
2018-11-10T23:17:23.370Z,18.77
2018-11-10T23:19:51.632Z,20.97
2018-11-10T23:22:19.810Z,20.77
2018-11-10T23:24:48.210Z,24.57
2018-11-10T23:27:22.881Z,27.50
2018-11-10T23:29:51.103Z,25.07
2018-11-10T23:32:19.298Z,25.00
2018-11-10T23:37:22.786Z,29.10
2018-11-10T23:39:51.029Z,29.87
2018-11-10T23:42:19.239Z,28.30
2018-11-10T23:44:47.467Z,32.63
2018-11-10T23:47:16.307Z,30.07
2018-11-10T23:49:44.514Z,36.57
2018-11-10T23:52:12.746Z,30.70
2018-11-10T23:54:40.971Z,35.43
2018-11-10T23:57:09.179Z,34.07
2018-11-10T23:59:37.359Z,32.17
